Time;durP1;ratioP1;P1;durP2;ratioP2;P2;SDS_P1;SDS_P2;PMS_P1;PMS_P2;Temp;Humidity;BMP_temperature;BMP_pressure;BME280_temperature;BME280_humidity;BME280_pressure;Samples;Min_cycle;Max_cycle;Signal;HPM_P1;HPM_P2
2021/08/08 00:01:43;;;;;;;0.77;0.40;;;16.10;77.70;;;;;;5055641;28;20449;-77
2021/08/08 00:04:09;;;;;;;0.77;0.40;;;16.10;77.70;;;;;;5054443;28;20372;-76
2021/08/08 00:06:35;;;;;;;0.93;0.50;;;16.00;78.10;;;;;;5071417;28;20024;-76
2021/08/08 00:09:03;;;;;;;0.88;0.47;;;16.00;77.80;;;;;;5095605;28;20050;-76
2021/08/08 00:11:28;;;;;;;1.13;0.50;;;16.10;77.80;;;;;;5081546;28;20033;-77
2021/08/08 00:13:54;;;;;;;1.20;0.60;;;16.10;77.80;;;;;;5054330;28;20545;-77
2021/08/08 00:16:20;;;;;;;0.80;0.60;;;16.00;78.40;;;;;;5054347;28;20409;-76
2021/08/08 00:18:45;;;;;;;0.85;0.50;;;15.90;78.90;;;;;;5055057;28;20031;-76
2021/08/08 00:21:11;;;;;;;0.95;0.50;;;15.90;79.00;;;;;;5054011;28;20037;-77
2021/08/08 00:23:37;;;;;;;1.17;0.70;;;15.80;79.10;;;;;;5054199;28;20071;-77
2021/08/08 00:26:08;;;;;;;1.35;0.57;;;15.90;78.90;;;;;;5057933;28;20075;-76
2021/08/08 00:28:33;;;;;;;1.08;0.50;;;15.90;78.60;;;;;;5075178;28;20021;-76
2021/08/08 00:30:59;;;;;;;1.08;0.50;;;16.00;78.50;;;;;;5075184;28;20445;-77
2021/08/08 00:33:25;;;;;;;1.73;0.60;;;15.90;78.50;;;;;;5069188;28;20459;-77
2021/08/08 00:35:50;;;;;;;0.90;0.60;;;15.90;78.80;;;;;;5053844;28;20021;-76
2021/08/08 00:38:16;;;;;;;0.85;0.50;;;15.90;78.50;;;;;;5054085;28;20395;-77
2021/08/08 00:40:43;;;;;;;1.23;0.50;;;15.80;79.30;;;;;;5060497;28;20028;-76
2021/08/08 00:43:13;;;;;;;1.00;0.50;;;15.80;79.50;;;;;;5083455;28;20152;-76
2021/08/08 00:45:39;;;;;;;1.05;0.50;;;15.80;79.40;;;;;;5074151;28;20043;-77
2021/08/08 00:48:05;;;;;;;1.40;0.80;;;15.80;79.10;;;;;;5073594;28;20025;-76
2021/08/08 00:50:31;;;;;;;1.33;0.82;;;15.80;79.30;;;;;;5075367;28;20040;-77
2021/08/08 00:52:56;;;;;;;1.52;0.60;;;15.80;79.10;;;;;;5060654;28;20021;-76
2021/08/08 00:55:22;;;;;;;1.23;0.65;;;15.80;79.10;;;;;;5054977;28;20033;-77
2021/08/08 00:57:48;;;;;;;1.45;0.70;;;15.80;79.10;;;;;;5063787;28;20032;-76
2021/08/08 01:00:14;;;;;;;1.25;0.77;;;15.80;79.10;;;;;;5073698;28;20037;-76
2021/08/08 01:02:47;;;;;;;0.80;0.40;;;15.80;78.80;;;;;;5066845;28;20028;-76
2021/08/08 01:05:18;;;;;;;1.20;0.50;;;15.90;78.80;;;;;;5053906;28;20025;-76
2021/08/08 01:07:51;;;;;;;2.00;0.60;;;15.80;79.20;;;;;;5054899;28;20134;-76
2021/08/08 01:10:18;;;;;;;0.90;0.50;;;15.90;78.90;;;;;;5054904;28;20128;-76
2021/08/08 01:12:45;;;;;;;1.20;0.70;;;15.90;78.60;;;;;;5073692;28;20033;-76
2021/08/08 01:15:11;;;;;;;1.23;0.60;;;15.80;78.90;;;;;;5072469;28;20550;-76
2021/08/08 01:17:42;;;;;;;1.10;0.50;;;15.90;78.60;;;;;;5062425;28;20071;-76
2021/08/08 01:20:11;;;;;;;0.93;0.50;;;16.00;78.50;;;;;;5078710;28;20040;-76
2021/08/08 01:22:41;;;;;;;1.17;0.60;;;16.00;78.40;;;;;;5074459;28;20033;-77
2021/08/08 01:25:08;;;;;;;0.70;0.45;;;15.90;78.50;;;;;;5058372;28;20036;-77
2021/08/08 01:27:36;;;;;;;1.13;0.50;;;16.00;78.40;;;;;;5058085;28;20071;-76
2021/08/08 01:30:02;;;;;;;1.17;0.52;;;15.90;78.40;;;;;;5057021;28;20083;-77
2021/08/08 01:32:29;;;;;;;1.05;0.50;;;16.00;78.10;;;;;;5058324;28;20024;-76
2021/08/08 01:34:55;;;;;;;0.82;0.50;;;16.00;78.10;;;;;;5056699;28;20059;-76
2021/08/08 01:37:21;;;;;;;1.00;0.60;;;15.90;78.60;;;;;;5058088;28;20479;-76
2021/08/08 01:40:13;;;;;;;;;;;;;;;;;;;;;
2021/08/08 01:42:42;;;;;;;0.88;0.50;;;15.80;79.30;;;;;;5066190;28;20402;-77
2021/08/08 01:45:10;;;;;;;1.25;0.68;;;15.80;79.30;;;;;;5079029;28;20067;-76
2021/08/08 01:47:39;;;;;;;0.95;0.50;;;15.70;79.30;;;;;;5057747;28;20021;-77
2021/08/08 01:50:06;;;;;;;0.88;0.60;;;15.80;78.70;;;;;;5057855;28;20028;-76
2021/08/08 01:52:34;;;;;;;1.60;0.70;;;15.70;79.20;;;;;;5057537;28;20033;-77
2021/08/08 01:55:00;;;;;;;1.08;0.50;;;15.70;79.40;;;;;;5056270;28;20491;-77
2021/08/08 01:57:31;;;;;;;1.02;0.47;;;15.70;79.30;;;;;;5069029;28;20052;-76
2021/08/08 01:59:57;;;;;;;1.30;0.65;;;15.60;79.90;;;;;;5076404;28;20028;-77
2021/08/08 02:02:23;;;;;;;0.98;0.50;;;15.70;79.50;;;;;;5076444;28;20028;-76
2021/08/08 02:04:49;;;;;;;0.90;0.50;;;15.60;79.70;;;;;;5071716;28;20041;-77
2021/08/08 02:07:18;;;;;;;1.60;0.77;;;15.60;79.90;;;;;;5056233;28;20027;-76
2021/08/08 02:09:44;;;;;;;0.77;0.57;;;15.60;79.70;;;;;;5056509;28;20052;-77
2021/08/08 02:12:10;;;;;;;1.15;0.50;;;15.60;80.00;;;;;;5056026;28;20092;-76
2021/08/08 02:14:37;;;;;;;1.13;0.65;;;15.60;79.90;;;;;;5057343;28;20388;-76
2021/08/08 02:17:03;;;;;;;1.80;0.70;;;15.70;79.60;;;;;;5055811;28;20021;-76
2021/08/08 02:19:29;;;;;;;1.02;0.60;;;15.60;79.40;;;;;;5055973;28;20057;-76
2021/08/08 02:21:56;;;;;;;1.27;0.70;;;15.60;79.50;;;;;;5056427;28;20036;-76
2021/08/08 02:24:21;;;;;;;0.77;0.50;;;15.50;79.70;;;;;;5057189;28;20029;-76
2021/08/08 02:26:47;;;;;;;0.98;0.50;;;15.30;80.40;;;;;;5055881;28;20039;-76
2021/08/08 02:29:13;;;;;;;1.08;0.60;;;15.50;79.90;;;;;;5055566;28;20033;-76
2021/08/08 02:31:43;;;;;;;1.13;0.50;;;15.40;80.00;;;;;;5055951;28;20017;-76
2021/08/08 02:34:09;;;;;;;0.70;0.40;;;15.30;80.20;;;;;;5062236;28;20039;-77
2021/08/08 02:36:35;;;;;;;1.02;0.60;;;15.40;80.10;;;;;;5076907;28;20096;-76
2021/08/08 02:39:02;;;;;;;1.38;0.60;;;15.40;80.00;;;;;;5072969;28;20068;-77
2021/08/08 02:41:27;;;;;;;1.13;0.50;;;15.30;80.00;;;;;;5068717;28;20017;-77
2021/08/08 02:43:54;;;;;;;0.57;0.40;;;15.30;80.30;;;;;;5089739;28;20058;-77
2021/08/08 02:46:21;;;;;;;1.90;0.65;;;15.40;80.20;;;;;;5095572;28;20035;-76
2021/08/08 02:48:47;;;;;;;0.90;0.50;;;15.20;80.70;;;;;;5081103;28;20032;-76
2021/08/08 02:51:12;;;;;;;1.08;0.50;;;15.20;80.70;;;;;;5074193;28;20024;-76
2021/08/08 02:53:38;;;;;;;1.10;0.60;;;15.20;80.80;;;;;;5055192;28;20017;-77
2021/08/08 02:56:05;;;;;;;0.68;0.45;;;15.20;80.80;;;;;;5056807;28;20025;-76
2021/08/08 02:58:30;;;;;;;1.00;0.55;;;15.10;80.80;;;;;;5072349;28;20509;-76
2021/08/08 03:00:56;;;;;;;0.90;0.60;;;15.20;81.10;;;;;;5075351;28;20032;-77
2021/08/08 03:03:22;;;;;;;1.02;0.60;;;15.10;81.10;;;;;;5074998;28;20032;-77
2021/08/08 03:05:50;;;;;;;1.08;0.60;;;15.20;81.20;;;;;;5058933;28;20365;-76
2021/08/08 03:08:16;;;;;;;1.40;0.50;;;15.20;80.80;;;;;;5054832;28;20120;-76
2021/08/08 03:10:42;;;;;;;1.33;0.60;;;15.20;81.00;;;;;;5067884;28;20056;-77
2021/08/08 03:13:07;;;;;;;1.45;0.68;;;15.20;81.00;;;;;;5076235;28;20055;-77
2021/08/08 03:15:33;;;;;;;0.95;0.50;;;15.30;80.50;;;;;;5074689;28;20056;-77
2021/08/08 03:17:59;;;;;;;1.55;0.70;;;15.30;80.10;;;;;;5073114;28;20021;-77
2021/08/08 03:20:25;;;;;;;1.45;0.63;;;15.30;80.10;;;;;;5056208;28;20036;-77
2021/08/08 03:22:50;;;;;;;1.25;0.70;;;15.10;80.90;;;;;;5054866;28;20060;-76
2021/08/08 03:25:16;;;;;;;1.02;0.70;;;15.20;80.50;;;;;;5055871;28;20037;-77
2021/08/08 03:27:42;;;;;;;0.77;0.55;;;15.20;80.30;;;;;;5055841;28;20114;-77
2021/08/08 03:30:08;;;;;;;0.95;0.60;;;15.10;80.80;;;;;;5056100;28;20468;-76
2021/08/08 03:32:35;;;;;;;1.27;0.60;;;15.00;81.10;;;;;;5069865;28;20021;-76
2021/08/08 03:35:03;;;;;;;0.68;0.40;;;14.90;81.40;;;;;;5054831;28;20032;-76
2021/08/08 03:37:29;;;;;;;0.80;0.50;;;14.90;81.30;;;;;;5054399;28;20029;-76
2021/08/08 03:39:57;;;;;;;1.48;0.80;;;15.00;81.30;;;;;;5055696;28;20124;-76
2021/08/08 03:42:22;;;;;;;0.85;0.60;;;14.90;81.20;;;;;;5077714;28;20072;-76
2021/08/08 03:44:50;;;;;;;1.30;0.60;;;14.90;81.20;;;;;;5095940;28;20031;-76
2021/08/08 03:47:18;;;;;;;0.82;0.52;;;14.90;81.30;;;;;;5094307;28;20020;-76
2021/08/08 03:49:44;;;;;;;0.95;0.50;;;14.80;81.30;;;;;;5073290;28;20036;-76
2021/08/08 03:52:09;;;;;;;0.80;0.50;;;14.80;81.10;;;;;;5055784;28;20024;-76
2021/08/08 03:54:35;;;;;;;0.70;0.47;;;14.90;80.90;;;;;;5054170;28;20028;-76
2021/08/08 03:57:01;;;;;;;0.75;0.47;;;14.90;80.80;;;;;;5054225;28;20040;-76
2021/08/08 03:59:26;;;;;;;1.23;0.60;;;14.80;81.10;;;;;;5055581;28;20032;-77
2021/08/08 04:01:52;;;;;;;0.57;0.50;;;14.80;81.10;;;;;;5055462;28;22408;-76
2021/08/08 04:04:17;;;;;;;1.10;0.60;;;14.70;81.50;;;;;;5074110;28;20391;-76
2021/08/08 04:06:43;;;;;;;0.98;0.60;;;14.70;81.80;;;;;;5074258;28;20483;-76
2021/08/08 04:09:09;;;;;;;1.15;0.65;;;14.70;81.50;;;;;;5057103;28;20100;-76
2021/08/08 04:11:35;;;;;;;1.35;0.80;;;14.70;81.20;;;;;;5055618;28;20479;-76
2021/08/08 04:14:00;;;;;;;0.80;0.50;;;14.80;81.10;;;;;;5054072;28;20502;-76
2021/08/08 04:16:26;;;;;;;0.80;0.60;;;14.60;81.70;;;;;;5053770;28;20025;-76
2021/08/08 04:18:51;;;;;;;1.00;0.50;;;14.50;81.90;;;;;;5070540;28;20527;-76
2021/08/08 04:21:17;;;;;;;1.05;0.60;;;14.50;82.00;;;;;;5055439;28;20032;-77
2021/08/08 04:23:43;;;;;;;1.80;0.88;;;14.50;81.90;;;;;;5055353;28;20032;-76
2021/08/08 04:26:08;;;;;;;1.10;0.70;;;14.50;82.00;;;;;;5070605;28;20051;-76
2021/08/08 04:28:39;;;;;;;1.10;0.50;;;14.50;82.00;;;;;;5054968;28;20037;-76
2021/08/08 04:31:10;;;;;;;0.77;0.50;;;14.40;82.10;;;;;;5055518;28;20017;-75
2021/08/08 04:33:37;;;;;;;0.52;0.47;;;14.40;82.10;;;;;;5053995;28;20056;-76
2021/08/08 04:36:03;;;;;;;0.63;0.50;;;14.30;82.30;;;;;;5060972;28;20035;-76
2021/08/08 04:38:29;;;;;;;1.33;0.70;;;14.30;82.40;;;;;;5075190;28;20135;-76
2021/08/08 04:40:55;;;;;;;1.20;0.80;;;14.30;82.60;;;;;;5073817;28;20060;-76
2021/08/08 04:43:21;;;;;;;0.85;0.55;;;14.20;82.80;;;;;;5083705;28;20048;-76
2021/08/08 04:45:46;;;;;;;0.80;0.60;;;14.20;82.70;;;;;;5096122;28;20031;-76
2021/08/08 04:48:14;;;;;;;0.80;0.60;;;14.30;82.60;;;;;;5079267;28;20033;-76
2021/08/08 04:50:40;;;;;;;1.20;0.70;;;14.30;82.20;;;;;;5077675;28;20024;-76
2021/08/08 04:53:11;;;;;;;1.10;0.70;;;14.40;82.10;;;;;;5067757;28;20097;-76
2021/08/08 04:55:37;;;;;;;1.10;0.60;;;14.40;82.00;;;;;;5057732;28;20060;-76
2021/08/08 04:58:02;;;;;;;0.93;0.40;;;14.20;82.80;;;;;;5076841;28;20048;-76
2021/08/08 05:00:28;;;;;;;1.30;0.80;;;14.20;82.90;;;;;;5077479;28;20032;-76
2021/08/08 05:02:54;;;;;;;1.55;0.88;;;14.20;83.00;;;;;;5077487;28;20028;-76
2021/08/08 05:05:19;;;;;;;1.30;0.90;;;14.20;82.70;;;;;;5076441;28;20028;-76
2021/08/08 05:07:45;;;;;;;1.15;0.52;;;14.20;82.60;;;;;;5057144;28;20032;-76
2021/08/08 05:10:13;;;;;;;0.90;0.60;;;14.20;82.70;;;;;;5058586;28;20033;-75
2021/08/08 05:12:40;;;;;;;1.10;0.63;;;14.20;82.70;;;;;;5057477;28;20506;-76
2021/08/08 05:15:07;;;;;;;0.90;0.60;;;14.30;82.40;;;;;;5060608;28;20108;-76
2021/08/08 05:17:33;;;;;;;1.05;0.65;;;14.40;81.90;;;;;;5058241;28;20033;-76
2021/08/08 05:19:58;;;;;;;1.10;0.60;;;14.30;81.90;;;;;;5064321;28;20025;-76
2021/08/08 05:22:24;;;;;;;1.83;0.70;;;14.30;82.30;;;;;;5058264;28;20032;-76
2021/08/08 05:24:50;;;;;;;1.50;0.80;;;14.30;82.50;;;;;;5073964;28;20029;-76
2021/08/08 05:27:15;;;;;;;1.02;0.60;;;14.30;82.70;;;;;;5058257;28;20031;-76
2021/08/08 05:29:41;;;;;;;0.90;0.60;;;14.30;82.60;;;;;;5058036;28;20068;-76
2021/08/08 05:32:07;;;;;;;0.65;0.60;;;14.30;82.40;;;;;;5058142;28;20036;-76
2021/08/08 05:34:32;;;;;;;1.80;0.90;;;14.30;82.40;;;;;;5061339;28;20033;-76
2021/08/08 05:36:58;;;;;;;1.65;0.70;;;14.30;82.20;;;;;;5058528;28;20175;-76
2021/08/08 05:39:24;;;;;;;0.98;0.68;;;14.40;82.10;;;;;;5058116;28;20062;-76
2021/08/08 05:41:49;;;;;;;1.08;0.55;;;14.40;82.30;;;;;;5072455;28;20060;-76
2021/08/08 05:44:15;;;;;;;1.02;0.60;;;14.20;82.70;;;;;;5078078;28;20044;-76
2021/08/08 05:46:41;;;;;;;1.35;0.93;;;14.30;83.00;;;;;;5075875;28;20031;-77
2021/08/08 05:49:08;;;;;;;1.48;0.80;;;14.30;82.60;;;;;;5077731;28;20395;-76
2021/08/08 05:51:36;;;;;;;1.08;0.70;;;14.30;82.60;;;;;;5077802;28;20020;-76
2021/08/08 05:54:02;;;;;;;1.30;0.70;;;14.40;82.30;;;;;;5076457;28;20060;-76
2021/08/08 05:56:27;;;;;;;1.17;0.70;;;14.50;82.10;;;;;;5060679;28;20021;-76
2021/08/08 05:58:53;;;;;;;1.40;0.55;;;14.50;82.20;;;;;;5057315;28;20052;-76
2021/08/08 06:01:19;;;;;;;1.20;0.80;;;14.50;82.20;;;;;;5056574;28;20029;-76
2021/08/08 06:03:44;;;;;;;1.80;0.90;;;14.50;82.60;;;;;;5071877;28;20036;-76
2021/08/08 06:06:10;;;;;;;1.20;0.70;;;14.50;82.80;;;;;;5057668;28;20036;-76
2021/08/08 06:08:37;;;;;;;1.80;0.80;;;14.60;82.60;;;;;;5057290;28;20069;-76
2021/08/08 06:11:03;;;;;;;0.93;0.70;;;14.60;82.40;;;;;;5057434;28;20021;-76
2021/08/08 06:13:28;;;;;;;1.65;0.77;;;14.80;82.00;;;;;;5057321;28;20044;-76
2021/08/08 06:15:54;;;;;;;1.40;0.80;;;14.90;81.70;;;;;;5057426;28;20021;-76
2021/08/08 06:18:20;;;;;;;0.93;0.50;;;14.90;81.60;;;;;;5056070;28;20061;-76
2021/08/08 06:20:45;;;;;;;1.38;0.85;;;14.90;81.70;;;;;;5060099;28;20143;-76
2021/08/08 06:23:11;;;;;;;1.10;0.70;;;14.90;82.00;;;;;;5077191;28;20454;-76
2021/08/08 06:25:37;;;;;;;1.48;0.70;;;15.00;81.70;;;;;;5077348;28;20071;-76
2021/08/08 06:28:03;;;;;;;1.00;0.60;;;15.10;81.70;;;;;;5070775;28;20075;-76
2021/08/08 06:30:28;;;;;;;1.30;0.60;;;15.00;81.80;;;;;;5057050;28;20049;-76
2021/08/08 06:32:54;;;;;;;1.20;0.63;;;15.10;82.00;;;;;;5056780;28;20028;-76
2021/08/08 06:35:20;;;;;;;1.70;0.90;;;15.20;81.60;;;;;;5056822;28;20043;-76
2021/08/08 06:37:45;;;;;;;1.13;0.63;;;15.30;81.20;;;;;;5057157;28;20036;-76
2021/08/08 06:40:12;;;;;;;1.20;0.73;;;15.40;80.70;;;;;;5068401;28;20028;-77
2021/08/08 06:42:38;;;;;;;1.17;0.70;;;15.50;80.50;;;;;;5075696;28;20059;-76
2021/08/08 06:45:05;;;;;;;1.17;0.60;;;15.50;80.70;;;;;;5076846;28;20036;-77
2021/08/08 06:47:30;;;;;;;1.15;0.68;;;15.60;80.40;;;;;;5074314;28;20475;-77
2021/08/08 06:49:56;;;;;;;1.13;0.70;;;15.70;79.80;;;;;;5055349;28;20438;-77
2021/08/08 06:52:22;;;;;;;0.90;0.60;;;15.90;79.20;;;;;;5056665;28;20479;-76
2021/08/08 06:54:48;;;;;;;1.02;0.57;;;15.80;79.00;;;;;;5056722;28;20108;-77
2021/08/08 06:57:23;;;;;;;1.08;0.60;;;15.80;78.80;;;;;;5055115;28;20589;-76
2021/08/08 06:59:49;;;;;;;1.10;0.60;;;15.80;78.70;;;;;;5056763;28;20055;-76
2021/08/08 07:02:15;;;;;;;1.02;0.68;;;16.00;78.80;;;;;;5055280;28;20025;-76
2021/08/08 07:04:40;;;;;;;1.30;0.70;;;15.90;78.50;;;;;;5056509;28;20108;-77
2021/08/08 07:07:06;;;;;;;1.15;0.65;;;16.00;78.30;;;;;;5055086;28;20159;-76
2021/08/08 07:09:32;;;;;;;0.95;0.70;;;16.10;78.30;;;;;;5054675;28;20033;-76
2021/08/08 07:11:57;;;;;;;0.73;0.50;;;16.20;77.80;;;;;;5056297;28;20036;-76
2021/08/08 07:14:23;;;;;;;1.02;0.43;;;16.30;77.10;;;;;;5071468;28;20021;-76
2021/08/08 07:16:48;;;;;;;1.63;0.57;;;16.40;76.90;;;;;;5054667;28;20025;-76
2021/08/08 07:19:14;;;;;;;0.98;0.50;;;16.80;75.30;;;;;;5054716;28;20029;-76
2021/08/08 07:21:40;;;;;;;1.23;0.60;;;18.00;72.00;;;;;;5055942;28;20411;-77
2021/08/08 07:24:05;;;;;;;1.60;0.80;;;19.20;68.20;;;;;;5055011;28;20046;-77
2021/08/08 07:26:31;;;;;;;0.70;0.43;;;21.10;59.90;;;;;;5056006;28;20033;-77
2021/08/08 07:28:57;;;;;;;1.05;0.50;;;23.50;54.30;;;;;;5055817;28;20032;-78
2021/08/08 07:31:22;;;;;;;1.00;0.32;;;25.20;48.80;;;;;;5056070;28;20190;-77
2021/08/08 07:33:48;;;;;;;0.35;0.20;;;26.40;46.50;;;;;;5056084;28;20155;-77
2021/08/08 07:36:14;;;;;;;0.57;0.20;;;25.90;44.50;;;;;;5073702;28;20032;-77
2021/08/08 07:38:39;;;;;;;1.38;0.45;;;24.60;47.50;;;;;;5075842;28;20080;-77
2021/08/08 07:41:09;;;;;;;0.85;0.40;;;23.90;50.30;;;;;;5075895;28;20024;-77
2021/08/08 07:43:34;;;;;;;0.73;0.38;;;24.50;49.10;;;;;;5075717;28;20052;-77
2021/08/08 07:46:00;;;;;;;0.50;0.30;;;25.20;46.30;;;;;;5074391;28;20029;-77
2021/08/08 07:48:26;;;;;;;0.73;0.40;;;25.50;45.50;;;;;;5075512;28;20024;-77
2021/08/08 07:50:51;;;;;;;1.25;0.30;;;26.90;44.10;;;;;;5075611;28;20063;-77
2021/08/08 07:53:17;;;;;;;0.75;0.30;;;27.10;43.10;;;;;;5073750;28;20025;-77
2021/08/08 07:55:43;;;;;;;1.00;0.40;;;28.30;40.50;;;;;;5075702;28;20032;-77
2021/08/08 07:58:08;;;;;;;0.73;0.32;;;27.20;41.40;;;;;;5075456;28;20151;-77
2021/08/08 08:00:34;;;;;;;1.00;0.50;;;26.90;43.20;;;;;;5065446;28;20072;-77
2021/08/08 08:03:00;;;;;;;0.77;0.20;;;27.10;42.10;;;;;;5055316;28;20028;-77
2021/08/08 08:05:25;;;;;;;0.40;0.20;;;26.20;44.30;;;;;;5054185;28;20037;-77
2021/08/08 08:07:51;;;;;;;0.60;0.30;;;24.80;47.10;;;;;;5055556;28;20028;-77
2021/08/08 08:10:16;;;;;;;0.40;0.20;;;24.70;47.50;;;;;;5055448;28;20440;-77
2021/08/08 08:12:42;;;;;;;1.00;0.55;;;24.60;47.70;;;;;;5055247;28;20124;-77
2021/08/08 08:15:08;;;;;;;0.90;0.32;;;26.00;45.20;;;;;;5055343;28;20545;-77
2021/08/08 08:17:34;;;;;;;0.82;0.40;;;25.80;44.60;;;;;;5055111;28;20147;-77
2021/08/08 08:19:59;;;;;;;0.68;0.30;;;26.80;42.50;;;;;;5055862;28;20035;-77
2021/08/08 08:22:25;;;;;;;0.40;0.10;;;28.40;39.30;;;;;;5059462;28;20349;-78
2021/08/08 08:24:51;;;;;;;0.43;0.20;;;28.00;39.60;;;;;;5059455;28;20476;-77
2021/08/08 08:27:16;;;;;;;0.70;0.40;;;26.70;42.50;;;;;;5059370;28;20031;-78
2021/08/08 08:29:42;;;;;;;0.82;0.40;;;26.20;43.60;;;;;;5064537;28;20036;-77
2021/08/08 08:32:08;;;;;;;0.68;0.30;;;26.60;44.00;;;;;;5079234;28;20021;-77
2021/08/08 08:34:34;;;;;;;0.73;0.30;;;25.60;45.60;;;;;;5079484;28;20024;-77
2021/08/08 08:37:00;;;;;;;0.95;0.50;;;25.50;44.20;;;;;;5075644;28;20021;-77
2021/08/08 08:39:25;;;;;;;1.00;0.40;;;24.70;45.90;;;;;;5059082;28;20063;-77
2021/08/08 08:41:54;;;;;;;0.68;0.30;;;24.50;46.70;;;;;;5073886;28;20067;-77
2021/08/08 08:44:22;;;;;;;0.68;0.20;;;25.10;46.30;;;;;;5077980;28;20054;-77
2021/08/08 08:46:48;;;;;;;0.52;0.32;;;25.20;45.60;;;;;;5078974;28;20039;-77
2021/08/08 08:49:20;;;;;;;0.68;0.30;;;25.50;44.40;;;;;;5078915;28;20028;-77
2021/08/08 08:51:50;;;;;;;0.90;0.40;;;27.00;42.00;;;;;;5073799;28;20020;-77
2021/08/08 08:54:18;;;;;;;0.63;0.30;;;26.40;41.70;;;;;;5058853;28;20025;-77
2021/08/08 08:56:44;;;;;;;0.45;0.20;;;27.90;39.10;;;;;;5057769;28;20036;-77
2021/08/08 08:59:11;;;;;;;0.45;0.20;;;29.20;36.60;;;;;;5058703;28;20021;-78
2021/08/08 09:01:39;;;;;;;0.55;0.20;;;29.60;37.00;;;;;;5058762;28;20104;-77
2021/08/08 09:04:04;;;;;;;0.52;0.17;;;29.60;35.50;;;;;;5059805;28;20115;-77
2021/08/08 09:06:30;;;;;;;0.30;0.10;;;28.20;38.10;;;;;;5077301;28;20059;-77
2021/08/08 09:08:56;;;;;;;0.50;0.20;;;28.00;38.20;;;;;;5071530;28;20447;-77
2021/08/08 09:11:22;;;;;;;0.68;0.20;;;27.00;39.80;;;;;;5058682;28;20083;-77
2021/08/08 09:13:56;;;;;;;0.40;0.25;;;26.30;40.40;;;;;;5058568;28;20025;-77
2021/08/08 09:16:26;;;;;;;0.30;0.10;;;26.90;39.50;;;;;;5067824;28;20039;-77
2021/08/08 09:18:55;;;;;;;0.50;0.20;;;27.50;38.70;;;;;;5077005;28;20028;-77
2021/08/08 09:21:21;;;;;;;;;;;28.20;37.30;;;;;;5078875;28;20107;-77
2021/08/08 09:23:58;;;;;;;0.28;0.10;;;29.00;36.10;;;;;;5071126;28;19920;-77
2021/08/08 09:26:34;;;;;;;0.63;0.20;;;28.30;37.70;;;;;;5058206;28;20065;-77
2021/08/08 09:29:05;;;;;;;0.90;0.20;;;27.10;42.60;;;;;;5056771;28;20032;-77
2021/08/08 09:31:39;;;;;;;0.68;0.30;;;26.10;44.70;;;;;;5076720;28;20323;-77
2021/08/08 09:34:04;;;;;;;0.60;0.20;;;25.80;45.00;;;;;;5076836;28;20021;-77
2021/08/08 09:36:41;;;;;;;0.77;0.28;;;25.60;46.80;;;;;;5057023;28;20029;-77
2021/08/08 09:39:08;;;;;;;0.32;0.10;;;25.30;46.70;;;;;;5058046;28;20036;-77
2021/08/08 09:41:34;;;;;;;0.30;0.17;;;26.50;43.50;;;;;;5067161;28;20467;-77
2021/08/08 09:44:08;;;;;;;0.85;0.32;;;26.60;44.60;;;;;;5057808;28;20077;-77
2021/08/08 09:46:35;;;;;;;0.32;0.10;;;27.00;41.80;;;;;;5057993;28;20037;-77
2021/08/08 09:49:12;;;;;;;0.75;0.30;;;27.50;41.60;;;;;;5057639;28;20029;-77
2021/08/08 09:51:48;;;;;;;0.68;0.40;;;28.00;41.50;;;;;;5057774;28;20021;-77
2021/08/08 09:54:14;;;;;;;0.35;0.15;;;28.90;38.50;;;;;;5057629;28;20013;-77
2021/08/08 09:56:40;;;;;;;0.50;0.20;;;28.60;38.30;;;;;;5057819;28;20491;-77
2021/08/08 09:59:06;;;;;;;0.57;0.20;;;29.10;37.90;;;;;;5057635;28;20021;-77
2021/08/08 10:01:41;;;;;;;0.68;0.20;;;30.00;35.70;;;;;;5057382;28;20033;-78
2021/08/08 10:04:07;;;;;;;0.50;0.30;;;30.20;36.10;;;;;;5057344;28;20052;-77
2021/08/08 10:06:34;;;;;;;0.68;0.10;;;30.50;34.30;;;;;;5057546;28;20033;-77
2021/08/08 10:09:03;;;;;;;0.50;0.20;;;29.80;36.30;;;;;;5072661;28;20025;-77
2021/08/08 10:11:31;;;;;;;0.13;0.10;;;29.60;36.10;;;;;;5057494;28;20493;-77
2021/08/08 10:14:02;;;;;;;0.20;0.10;;;29.00;36.50;;;;;;5057408;28;20597;-77
2021/08/08 10:16:33;;;;;;;0.52;0.20;;;27.20;39.10;;;;;;5057458;28;20480;-77
2021/08/08 10:19:02;;;;;;;0.38;0.10;;;26.30;41.30;;;;;;5068951;28;20546;-77
2021/08/08 10:21:30;;;;;;;0.40;0.10;;;24.90;44.60;;;;;;5077374;28;20037;-77
2021/08/08 10:24:06;;;;;;;0.60;0.20;;;24.00;50.00;;;;;;5077306;28;20032;-77
2021/08/08 10:26:31;;;;;;;0.40;0.20;;;23.10;55.00;;;;;;5060017;28;20382;-77
2021/08/08 10:28:59;;;;;;;0.30;0.20;;;23.20;55.20;;;;;;5056947;28;20353;-77
2021/08/08 10:31:28;;;;;;;0.70;0.30;;;23.40;56.20;;;;;;5057308;28;20025;-77
2021/08/08 10:33:56;;;;;;;0.20;0.15;;;24.90;54.60;;;;;;5055634;28;20042;-77
2021/08/08 10:36:24;;;;;;;0.40;0.10;;;25.70;51.90;;;;;;5056763;28;20102;-77
2021/08/08 10:38:52;;;;;;;0.17;0.10;;;25.80;50.60;;;;;;5057124;28;20032;-77
2021/08/08 10:41:18;;;;;;;0.30;0.10;;;25.80;52.40;;;;;;5068695;28;20592;-77
2021/08/08 10:43:44;;;;;;;0.38;0.10;;;25.20;51.90;;;;;;5074685;28;20055;-77
2021/08/08 10:46:12;;;;;;;0.30;0.10;;;24.70;51.50;;;;;;5075438;28;20025;-77
2021/08/08 10:48:40;;;;;;;0.40;0.20;;;24.40;55.00;;;;;;5076505;28;20398;-77
2021/08/08 10:51:29;;;;;;;0.38;0.10;;;24.50;55.90;;;;;;5076775;28;20501;-77
2021/08/08 10:54:08;;;;;;;0.32;0.20;;;24.30;53.10;;;;;;5074284;28;20036;-77
2021/08/08 10:56:42;;;;;;;0.40;0.20;;;24.10;53.20;;;;;;5055575;28;20024;-77
2021/08/08 10:59:21;;;;;;;0.22;0.10;;;24.10;54.80;;;;;;5055391;28;20028;-77
2021/08/08 11:02:04;;;;;;;0.38;0.20;;;24.40;51.80;;;;;;5056854;28;20029;-77
2021/08/08 11:04:30;;;;;;;0.30;0.10;;;24.30;50.90;;;;;;5056446;28;20032;-77
2021/08/08 11:06:57;;;;;;;0.25;0.15;;;24.60;50.00;;;;;;5056519;28;20099;-77
2021/08/08 11:09:23;;;;;;;0.60;0.20;;;24.50;47.30;;;;;;5056091;28;20033;-77
2021/08/08 11:11:55;;;;;;;0.45;0.15;;;24.40;47.10;;;;;;5056628;28;20025;-77
2021/08/08 11:14:20;;;;;;;0.20;0.10;;;23.90;47.10;;;;;;5056303;28;20025;-77
2021/08/08 11:16:57;;;;;;;0.20;0.10;;;23.80;47.90;;;;;;5070571;28;20509;-77
2021/08/08 11:19:40;;;;;;;0.68;0.20;;;23.70;47.50;;;;;;5071933;28;20029;-77
2021/08/08 11:22:17;;;;;;;0.40;0.20;;;23.80;47.60;;;;;;5067668;28;20025;-77
2021/08/08 11:24:54;;;;;;;0.20;0.10;;;23.80;48.30;;;;;;5065047;28;20032;-77
2021/08/08 11:27:35;;;;;;;0.20;0.10;;;23.90;47.70;;;;;;5056079;28;20508;-77
2021/08/08 11:30:06;;;;;;;0.47;0.20;;;24.00;47.60;;;;;;5055980;28;20032;-77
2021/08/08 11:32:33;;;;;;;0.10;0.10;;;24.00;47.70;;;;;;5055554;28;20032;-77
2021/08/08 11:35:04;;;;;;;0.10;0.10;;;23.90;48.10;;;;;;5055888;28;20025;-77
2021/08/08 11:37:35;;;;;;;0.60;0.10;;;24.00;48.10;;;;;;5055860;28;20017;-77
2021/08/08 11:40:00;;;;;;;0.40;0.10;;;24.00;46.20;;;;;;5056790;28;20021;-77
2021/08/08 11:42:31;;;;;;;0.30;0.20;;;24.00;45.60;;;;;;5069897;28;20104;-77
2021/08/08 11:44:58;;;;;;;0.10;0.10;;;23.90;46.20;;;;;;5057331;28;20033;-77
2021/08/08 11:47:27;;;;;;;0.10;0.10;;;23.80;45.30;;;;;;5075586;28;20402;-77
2021/08/08 11:49:53;;;;;;;0.32;0.20;;;23.80;44.60;;;;;;5075632;28;20032;-77
2021/08/08 11:52:20;;;;;;;1.13;0.47;;;23.90;45.80;;;;;;5075666;28;20441;-77
2021/08/08 11:54:58;;;;;;;0.13;0.10;;;24.10;45.30;;;;;;5068396;28;20025;-77
2021/08/08 11:57:31;;;;;;;0.22;0.10;;;24.20;45.30;;;;;;5055618;28;20028;-77
2021/08/08 11:59:58;;;;;;;0.22;0.10;;;24.30;45.00;;;;;;5075310;28;20115;-77
2021/08/08 12:02:25;;;;;;;0.60;0.28;;;24.60;48.80;;;;;;5075519;28;20024;-77
2021/08/08 12:04:56;;;;;;;0.22;0.13;;;25.00;48.70;;;;;;5075758;28;20021;-77
2021/08/08 12:07:23;;;;;;;0.20;0.10;;;25.00;47.30;;;;;;5057249;28;20060;-77
2021/08/08 12:09:50;;;;;;;0.10;0.10;;;24.90;46.00;;;;;;5055422;28;20028;-77
2021/08/08 12:12:16;;;;;;;0.32;0.10;;;25.10;46.10;;;;;;5055357;28;20029;-77
2021/08/08 12:14:44;;;;;;;0.45;0.20;;;25.30;45.00;;;;;;5055339;28;20028;-77
2021/08/08 12:17:13;;;;;;;0.15;0.10;;;25.30;45.50;;;;;;5055296;28;20491;-77
2021/08/08 12:19:41;;;;;;;0.30;0.17;;;25.10;46.50;;;;;;5055589;28;20078;-77
2021/08/08 12:22:27;;;;;;;0.15;0.10;;;24.70;45.40;;;;;;5053802;28;20036;-77
2021/08/08 12:25:06;;;;;;;0.30;0.10;;;24.80;46.90;;;;;;5070907;28;20032;-77
2021/08/08 12:27:33;;;;;;;0.30;0.20;;;24.40;47.80;;;;;;5053832;28;20101;-77
2021/08/08 12:30:00;;;;;;;0.47;0.20;;;24.00;47.50;;;;;;5054010;28;20473;-77
2021/08/08 12:32:32;;;;;;;0.05;0.03;;;23.80;47.20;;;;;;5054085;28;20156;-77
2021/08/08 12:35:09;;;;;;;0.35;0.17;;;23.50;48.00;;;;;;5053981;28;20025;-77
2021/08/08 12:37:35;;;;;;;0.30;0.10;;;23.20;50.70;;;;;;5053935;28;20022;-77
2021/08/08 12:40:19;;;;;;;0.90;0.30;;;23.00;51.40;;;;;;5054830;28;20032;-77
2021/08/08 12:42:45;;;;;;;0.50;0.20;;;22.80;53.40;;;;;;5075059;28;20048;-77
2021/08/08 12:45:20;;;;;;;0.40;0.13;;;22.60;56.10;;;;;;5069786;28;20483;-77
2021/08/08 12:47:57;;;;;;;0.30;0.20;;;22.50;57.60;;;;;;5053881;28;20025;-77
2021/08/08 12:50:23;;;;;;;0.40;0.20;;;22.60;57.60;;;;;;5053637;28;20029;-77